Time;durP1;ratioP1;P1;durP2;ratioP2;P2;SDS_P1;SDS_P2;PMS_P1;PMS_P2;Temp;Humidity;BMP_temperature;BMP_pressure;BME280_temperature;BME280_humidity;BME280_pressure;Samples;Min_cycle;Max_cycle;Signal;HPM_P1;HPM_P2
2023/04/06 00:02:03;;;;;;;;;5.00;3.75;;;;;19.66;30.98;101284.69;5083499;28;45230;-48
2023/04/06 00:04:28;;;;;;;;;5.25;4.00;;;;;19.65;30.84;101282.97;5083517;28;45381;-50
2023/04/06 00:06:54;;;;;;;;;4.25;3.00;;;;;19.65;31.36;101284.72;5079454;28;45671;-49
2023/04/06 00:09:19;;;;;;;;;5.00;4.00;;;;;19.64;31.42;101289.16;5088471;28;46869;-44
2023/04/06 00:11:45;;;;;;;;;5.75;5.00;;;;;19.63;31.48;101285.66;5101696;28;44691;-51
2023/04/06 00:14:10;;;;;;;;;5.00;5.00;;;;;19.64;31.07;101278.63;5094691;28;45223;-48
2023/04/06 00:16:36;;;;;;;;;3.50;3.50;;;;;19.63;31.61;101287.44;5087338;28;45161;-48
2023/04/06 00:19:01;;;;;;;;;7.50;5.00;;;;;19.62;31.04;101283.09;5085226;28;45377;-49
2023/04/06 00:21:26;;;;;;;;;4.00;4.00;;;;;19.63;31.43;101282.19;5085715;28;45230;-48
2023/04/06 00:23:52;;;;;;;;;4.00;4.00;;;;;19.62;31.26;101281.31;5079462;28;45228;-48
2023/04/06 00:26:17;;;;;;;;;5.50;4.25;;;;;19.62;31.21;101276.03;5086666;28;45235;-50
2023/04/06 00:28:43;;;;;;;;;5.75;5.75;;;;;19.61;31.15;101274.38;5088619;28;46099;-48
2023/04/06 00:31:08;;;;;;;;;5.25;5.00;;;;;19.61;31.11;101273.50;5090597;28;45254;-50
2023/04/06 00:33:33;;;;;;;;;5.25;4.00;;;;;19.61;31.03;101269.09;5093412;28;45409;-47
2023/04/06 00:35:59;;;;;;;;;7.75;4.00;;;;;19.61;31.33;101268.22;5096316;28;45547;-49
2023/04/06 00:38:24;;;;;;;;;5.00;5.00;;;;;19.61;31.24;101268.22;5082307;28;45589;-50
2023/04/06 00:40:50;;;;;;;;;5.00;5.00;;;;;19.61;31.03;101268.22;5078785;28;45439;-48
2023/04/06 00:43:15;;;;;;;;;6.00;5.00;;;;;19.59;31.59;101263.06;5079231;28;45396;-48
2023/04/06 00:45:42;;;;;;;;;4.50;4.25;;;;;19.60;31.27;101263.91;5081153;28;45307;-45
2023/04/06 00:48:08;;;;;;;;;4.00;4.00;;;;;19.59;31.32;101255.16;5080746;28;45393;-46
2023/04/06 00:50:34;;;;;;;;;4.00;4.00;;;;;19.60;31.39;101263.91;5083895;28;45208;-45
2023/04/06 00:53:00;;;;;;;;;5.00;4.50;;;;;19.59;31.37;101255.16;5086216;28;45437;-49
2023/04/06 00:55:26;;;;;;;;;5.50;4.00;;;;;19.58;31.79;101247.31;5093170;28;45316;-44
2023/04/06 00:57:52;;;;;;;;;4.00;4.00;;;;;19.59;31.29;101241.16;5079548;28;46249;-45
2023/04/06 01:00:17;;;;;;;;;6.25;4.25;;;;;19.59;31.44;101242.03;5062997;28;45246;-48
2023/04/06 01:02:44;;;;;;;;;3.25;3.25;;;;;19.58;31.50;101242.94;5077026;28;45270;-48
2023/04/06 01:05:11;;;;;;;;;6.50;4.25;;;;;19.59;31.39;101241.16;5087095;28;45600;-48
2023/04/06 01:07:36;;;;;;;;;4.25;4.25;;;;;19.58;31.38;101239.44;5093526;28;46455;-45
2023/04/06 01:10:02;;;;;;;;;6.00;4.75;;;;;19.57;31.87;101235.09;5090891;28;45256;-48
2023/04/06 01:12:28;;;;;;;;;5.75;4.75;;;;;19.53;31.79;101225.66;5077258;28;45283;-46
2023/04/06 01:14:53;;;;;;;;;5.50;4.75;;;;;19.56;31.72;101234.25;5081565;28;45464;-45
2023/04/06 01:17:18;;;;;;;;;4.75;4.75;;;;;19.55;31.41;101227.28;5079099;28;45411;-48
2023/04/06 01:19:45;;;;;;;;;4.75;4.00;;;;;19.54;31.42;101224.75;5077270;28;45305;-45
2023/04/06 01:22:18;;;;;;;;;5.00;4.75;;;;;19.54;31.99;101224.75;5080872;28;45396;-42
2023/04/06 01:24:43;;;;;;;;;6.00;6.00;;;;;19.55;31.95;101229.09;5099294;28;45466;-50
2023/04/06 01:27:09;;;;;;;;;4.50;4.50;;;;;19.53;31.68;101223.88;5076884;28;45346;-48
2023/04/06 01:29:35;;;;;;;;;6.00;5.00;;;;;19.55;31.78;101224.66;5079939;27;44754;-49
2023/04/06 01:32:00;;;;;;;;;5.00;5.00;;;;;19.55;32.06;101226.47;5082994;28;45323;-50
2023/04/06 01:34:26;;;;;;;;;4.00;4.00;;;;;19.55;31.34;101227.28;5077269;28;45321;-49
2023/04/06 01:36:51;;;;;;;;;3.75;3.75;;;;;19.53;31.96;101218.63;5076950;28;47011;-48
2023/04/06 01:39:17;;;;;;;;;6.25;4.50;;;;;19.55;31.55;101215.94;5076538;28;45319;-49
2023/04/06 01:41:42;;;;;;;;;6.00;6.00;;;;;19.53;32.01;101213.34;5076586;28;45345;-49
2023/04/06 01:44:07;;;;;;;;;5.75;5.75;;;;;19.54;31.87;101208.97;5076886;28;45361;-49
2023/04/06 01:46:33;;;;;;;;;5.00;5.00;;;;;19.54;31.95;101206.34;5076509;28;46988;-50
2023/04/06 01:48:58;;;;;;;;;4.50;4.25;;;;;19.54;31.68;101206.34;5076954;28;45325;-50
2023/04/06 01:51:25;;;;;;;;;4.25;4.25;;;;;19.54;32.06;101203.72;5077748;28;45430;-49
2023/04/06 01:53:51;;;;;;;;;4.00;3.00;;;;;19.53;31.56;101202.00;5094750;28;45317;-48
2023/04/06 01:56:16;;;;;;;;;5.75;5.00;;;;;19.55;32.06;101197.53;5101852;27;45798;-46
2023/04/06 01:58:42;;;;;;;;;5.75;5.00;;;;;19.53;31.46;101197.59;5102992;27;45338;-48
2023/04/06 02:01:07;;;;;;;;;6.00;4.50;;;;;19.53;31.59;101202.00;5084696;28;45385;-48
2023/04/06 02:03:33;;;;;;;;;6.25;4.50;;;;;19.54;32.09;101208.97;5082038;28;45454;-52
2023/04/06 02:05:58;;;;;;;;;6.50;5.50;;;;;19.55;32.11;101213.31;5087282;28;47274;-50
2023/04/06 02:08:23;;;;;;;;;4.75;4.75;;;;;19.54;32.35;101204.56;5084567;28;45357;-50
2023/04/06 02:10:49;;;;;;;;;5.25;5.25;;;;;19.54;31.95;101212.44;5098051;27;45295;-50
2023/04/06 02:13:14;;;;;;;;;6.50;5.00;;;;;19.53;32.29;101202.00;5097994;28;45563;-50
2023/04/06 02:15:39;;;;;;;;;4.00;4.00;;;;;19.52;32.19;101203.75;5097305;28;45518;-45
2023/04/06 02:18:05;;;;;;;;;4.75;4.50;;;;;19.54;31.80;101201.94;5081000;28;45266;-44
2023/04/06 02:20:30;;;;;;;;;4.75;4.75;;;;;19.52;32.16;101202.94;5080861;28;45364;-46
2023/04/06 02:22:58;;;;;;;;;6.50;5.00;;;;;19.53;32.26;101199.38;5081043;28;45279;-45
2023/04/06 02:25:24;;;;;;;;;6.75;5.50;;;;;19.52;32.04;101195.03;5080555;28;45393;-44
2023/04/06 02:27:49;;;;;;;;;7.50;6.25;;;;;19.51;31.82;101182.81;5080079;28;45409;-52
2023/04/06 02:30:14;;;;;;;;;6.00;6.00;;;;;19.52;31.89;101181.88;5080438;28;45444;-50
2023/04/06 02:32:40;;;;;;;;;5.25;4.25;;;;;19.51;31.87;101174.94;5080982;28;45362;-50
2023/04/06 02:35:05;;;;;;;;;6.00;5.50;;;;;19.51;32.28;101177.56;5081050;28;45477;-49
2023/04/06 02:37:31;;;;;;;;;5.00;5.00;;;;;19.51;31.84;101177.56;5086339;28;45326;-49
2023/04/06 02:39:56;;;;;;;;;5.50;5.00;;;;;19.50;32.27;101170.59;5093188;28;45338;-50
2023/04/06 02:42:22;;;;;;;;;6.50;6.00;;;;;19.50;32.50;101167.97;5086704;28;45286;-50
2023/04/06 02:44:47;;;;;;;;;7.00;4.25;;;;;19.50;32.25;101160.06;5079045;28;46562;-52
2023/04/06 02:47:12;;;;;;;;;9.50;7.00;;;;;19.50;32.24;101165.31;5082387;28;45433;-52
2023/04/06 02:49:38;;;;;;;;;5.25;4.75;;;;;19.49;31.97;101164.50;5088406;28;45448;-50
2023/04/06 02:52:03;;;;;;;;;5.00;5.00;;;;;19.47;32.14;101161.91;5085167;28;45601;-49
2023/04/06 02:54:28;;;;;;;;;6.00;4.50;;;;;19.48;31.98;101162.78;5092414;28;45401;-46
2023/04/06 02:56:54;;;;;;;;;6.50;5.00;;;;;19.49;31.96;101179.41;5079260;28;45243;-51
2023/04/06 02:59:20;;;;;;;;;2.25;2.25;;;;;19.47;32.43;101182.09;5078922;28;45382;-50
2023/04/06 03:01:45;;;;;;;;;6.75;5.50;;;;;19.47;32.32;101180.31;5078920;28;45632;-51
2023/04/06 03:04:11;;;;;;;;;6.00;5.50;;;;;19.47;31.98;101185.56;5078716;28;45264;-49
2023/04/06 03:06:36;;;;;;;;;5.00;5.00;;;;;19.47;32.42;101177.69;5078722;28;45273;-50
2023/04/06 03:09:02;;;;;;;;;8.00;6.00;;;;;19.47;32.05;101172.44;5078784;28;45574;-43
2023/04/06 03:11:27;;;;;;;;;5.50;5.00;;;;;19.46;32.65;101183.84;5078830;28;45237;-46
2023/04/06 03:13:53;;;;;;;;;5.00;4.50;;;;;19.45;32.39;101176.06;5060311;28;46010;-46
2023/04/06 03:16:18;;;;;;;;;5.00;5.00;;;;;19.45;32.47;101163.78;5082211;28;45256;-45
2023/04/06 03:18:46;;;;;;;;;8.75;5.50;;;;;19.45;32.03;101163.78;5086598;28;45248;-50
2023/04/06 03:21:14;;;;;;;;;5.75;5.00;;;;;19.46;31.98;101164.63;5080885;28;45436;-52
2023/04/06 03:23:40;;;;;;;;;5.25;5.25;;;;;19.46;32.15;101172.50;5098094;28;45176;-50
2023/04/06 03:26:05;;;;;;;;;5.50;5.50;;;;;19.46;32.47;101164.63;5094781;28;45239;-48
2023/04/06 03:28:30;;;;;;;;;6.50;5.25;;;;;19.46;31.89;101164.63;5078498;28;45387;-47
2023/04/06 03:30:56;;;;;;;;;5.50;5.50;;;;;19.45;32.45;101174.28;5078783;28;45475;-49
2023/04/06 03:33:21;;;;;;;;;6.25;5.75;;;;;19.45;32.47;101176.94;5078303;28;46027;-50
2023/04/06 03:35:47;;;;;;;;;8.75;6.00;;;;;19.45;32.23;101176.94;5078042;28;45299;-48
2023/04/06 03:38:12;;;;;;;;;5.50;4.75;;;;;19.45;32.32;101174.28;5078132;28;45294;-49
2023/04/06 03:40:37;;;;;;;;;4.75;4.75;;;;;19.45;32.23;101160.28;5078391;28;45289;-51
2023/04/06 03:43:04;;;;;;;;;7.00;5.00;;;;;19.43;32.18;101160.38;5077978;28;46238;-51
2023/04/06 03:45:29;;;;;;;;;5.00;5.00;;;;;19.44;32.04;101159.44;5078286;28;45361;-49
2023/04/06 03:47:54;;;;;;;;;4.25;4.00;;;;;19.43;32.63;101146.34;5078410;28;45322;-51
2023/04/06 03:50:20;;;;;;;;;4.50;4.50;;;;;19.40;32.50;101149.97;5079753;28;45342;-50
2023/04/06 03:52:45;;;;;;;;;8.25;6.00;;;;;19.43;32.20;101162.13;5095620;28;45302;-48
2023/04/06 03:55:10;;;;;;;;;4.75;4.25;;;;;19.42;32.46;101158.66;5080926;28;45453;-50
2023/04/06 03:57:37;;;;;;;;;5.00;5.00;;;;;19.42;32.18;101156.03;5078151;28;45410;-49
2023/04/06 04:00:03;;;;;;;;;5.75;4.00;;;;;19.42;32.23;101148.13;5080527;28;45573;-43
2023/04/06 04:02:28;;;;;;;;;6.00;5.00;;;;;19.43;32.27;101155.09;5089060;28;46812;-49
2023/04/06 04:04:54;;;;;;;;;5.50;5.25;;;;;19.42;32.20;101152.53;5093881;28;45252;-51
2023/04/06 04:07:19;;;;;;;;;5.00;4.50;;;;;19.41;32.17;101156.94;5102277;28;44719;-46
2023/04/06 04:09:45;;;;;;;;;6.25;6.25;;;;;19.40;32.40;101152.59;5097464;27;45157;-49
2023/04/06 04:12:10;;;;;;;;;5.25;5.25;;;;;19.41;32.24;101162.22;5105248;27;45115;-50
2023/04/06 04:14:35;;;;;;;;;5.50;4.50;;;;;19.42;32.59;101158.66;5104564;28;44678;-44
2023/04/06 04:17:00;;;;;;;;;5.00;5.00;;;;;19.42;32.46;101153.41;5104575;27;44661;-49
2023/04/06 04:19:27;;;;;;;;;4.00;4.00;;;;;19.40;32.04;101144.72;5105046;27;44928;-47
2023/04/06 04:21:52;;;;;;;;;5.00;5.00;;;;;19.40;32.38;101144.72;5087609;28;45278;-49
2023/04/06 04:24:18;;;;;;;;;5.25;5.25;;;;;19.40;32.08;101141.25;5076987;28;45230;-49
2023/04/06 04:26:44;;;;;;;;;6.00;5.25;;;;;19.40;32.66;101139.47;5078154;28;45328;-50
2023/04/06 04:29:09;;;;;;;;;7.25;5.25;;;;;19.41;32.28;101129.78;5078659;28;45377;-53
2023/04/06 04:31:35;;;;;;;;;6.50;6.50;;;;;19.41;32.67;101135.06;5078174;28;46422;-46
2023/04/06 04:34:01;;;;;;;;;6.50;5.00;;;;;19.40;32.62;101136.84;5078899;28;45348;-50
2023/04/06 04:36:26;;;;;;;;;6.25;6.00;;;;;19.40;32.33;101149.16;5078109;28;45329;-50
2023/04/06 04:38:52;;;;;;;;;5.50;4.50;;;;;19.39;32.05;101148.28;5078708;28;45371;-49
2023/04/06 04:41:17;;;;;;;;;4.50;4.50;;;;;19.39;32.59;101148.28;5079459;28;47293;-51
2023/04/06 04:43:43;;;;;;;;;7.25;6.25;;;;;19.39;32.74;101137.75;5085257;28;45353;-49
2023/04/06 04:46:08;;;;;;;;;6.00;4.75;;;;;19.38;32.54;101136.06;5088743;28;45263;-48
2023/04/06 04:48:34;;;;;;;;;6.00;5.75;;;;;19.38;32.74;101149.19;5089907;28;45221;-50
2023/04/06 04:51:04;;;;;;;;;4.00;4.00;;;;;19.39;32.56;101152.69;5088156;28;46295;-49
2023/04/06 04:53:29;;;;;;;;;5.00;4.25;;;;;19.39;32.15;101148.28;5099912;28;45120;-49
2023/04/06 04:55:54;;;;;;;;;6.75;6.00;;;;;19.39;32.75;101157.94;5101411;28;45323;-46
2023/04/06 04:58:20;;;;;;;;;6.00;5.00;;;;;19.39;32.17;101173.72;5100044;27;44816;-49
2023/04/06 05:00:46;;;;;;;;;7.50;6.25;;;;;19.38;32.81;101172.84;5085908;28;45243;-47
2023/04/06 05:03:21;;;;;;;;;6.00;6.00;;;;;19.37;32.76;101168.50;5094345;28;45271;-48
2023/04/06 05:05:47;;;;;;;;;5.25;5.25;;;;;19.38;32.68;101167.59;5081778;28;45279;-52
2023/04/06 05:08:12;;;;;;;;;5.25;5.25;;;;;19.37;32.76;101158.00;5077466;27;45594;-44
2023/04/06 05:10:37;;;;;;;;;5.00;5.00;;;;;19.34;32.74;101159.91;5101112;28;46045;-46
2023/04/06 05:13:03;;;;;;;;;0.00;0.00;;;;;19.38;32.95;101172.00;5077728;28;45435;-49
2023/04/06 05:15:28;;;;;;;;;6.00;6.00;;;;;19.37;32.60;101175.56;5082508;28;45376;-46
2023/04/06 05:17:54;;;;;;;;;5.50;5.50;;;;;19.37;32.80;101175.56;5061890;28;45375;-51
2023/04/06 05:20:19;;;;;;;;;5.00;5.00;;;;;19.36;32.23;101179.94;5076388;28;47051;-50
2023/04/06 05:22:45;;;;;;;;;4.25;4.25;;;;;19.36;32.46;101184.38;5083470;28;45272;-50
2023/04/06 05:25:10;;;;;;;;;5.50;5.00;;;;;19.37;32.52;101170.31;5092159;28;45173;-47
2023/04/06 05:27:35;;;;;;;;;4.50;4.50;;;;;19.37;32.90;101186.06;5092904;28;45227;-50
2023/04/06 05:30:01;;;;;;;;;4.75;4.75;;;;;19.35;32.71;101180.88;5060537;28;48353;-47
2023/04/06 05:32:27;;;;;;;;;4.00;4.00;;;;;19.35;32.51;101180.88;5064593;28;45261;-52
2023/04/06 05:34:53;;;;;;;;;5.00;5.00;;;;;19.35;32.55;101178.22;5080559;28;45430;-50
2023/04/06 05:37:18;;;;;;;;;5.75;5.75;;;;;19.35;32.68;101187.91;5081221;28;45445;-48
2023/04/06 05:39:44;;;;;;;;;6.00;6.00;;;;;19.35;32.41;101191.38;5094657;28;46105;-50
2023/04/06 05:42:09;;;;;;;;;6.50;5.00;;;;;19.35;32.86;101196.63;5092547;28;44729;-48
2023/04/06 05:44:37;;;;;;;;;5.50;4.25;;;;;19.35;32.30;101186.13;5081041;28;45282;-51
2023/04/06 05:47:02;;;;;;;;;8.00;5.00;;;;;19.35;32.78;101188.75;5080274;28;45675;-47
2023/04/06 05:49:27;;;;;;;;;5.00;5.00;;;;;19.34;32.56;101189.69;5079953;28;46308;-49
2023/04/06 05:51:53;;;;;;;;;5.50;4.50;;;;;19.32;32.63;101186.28;5079911;28;45338;-50
2023/04/06 05:54:18;;;;;;;;;4.00;4.00;;;;;19.34;32.67;101189.69;5080319;28;45424;-49
2023/04/06 05:56:43;;;;;;;;;5.00;5.00;;;;;19.33;32.83;101187.13;5080690;28;45472;-50
2023/04/06 05:59:09;;;;;;;;;6.25;4.75;;;;;19.32;33.06;101170.50;5080619;28;45416;-50
2023/04/06 06:01:34;;;;;;;;;6.75;4.00;;;;;19.34;32.50;101187.06;5084428;28;45436;-52
2023/04/06 06:04:01;;;;;;;;;5.00;5.00;;;;;19.34;32.70;101192.31;5085038;28;45263;-50
2023/04/06 06:06:28;;;;;;;;;5.25;5.25;;;;;19.32;32.42;101186.28;5100406;28;44892;-49
2023/04/06 06:08:53;;;;;;;;;4.75;4.75;;;;;19.33;32.42;101195.88;5080804;28;46169;-51
2023/04/06 06:11:18;;;;;;;;;5.00;3.25;;;;;19.34;32.69;101191.44;5096924;28;45307;-49
2023/04/06 06:13:44;;;;;;;;;6.00;5.25;;;;;19.33;33.02;101190.63;5086747;28;45190;-53
2023/04/06 06:16:09;;;;;;;;;6.00;6.00;;;;;19.32;32.99;101188.91;5081603;28;45570;-49
2023/04/06 06:18:36;;;;;;;;;5.25;5.00;;;;;19.34;33.14;101191.44;5084594;28;46429;-50
2023/04/06 06:21:01;;;;;;;;;5.25;5.00;;;;;19.35;32.96;101187.91;5082346;28;45440;-49
2023/04/06 06:23:27;;;;;;;;;4.50;4.50;;;;;19.35;32.91;101186.13;5064450;28;45403;-47
2023/04/06 06:25:52;;;;;;;;;7.00;6.00;;;;;19.36;32.66;101184.38;5080236;28;45329;-49
2023/04/06 06:28:17;;;;;;;;;5.00;4.00;;;;;19.37;32.97;101192.16;5079523;28;46323;-48
2023/04/06 06:30:43;;;;;;;;;7.75;4.75;;;;;19.34;32.88;101176.56;5080645;28;45276;-50
2023/04/06 06:33:08;;;;;;;;;5.50;5.25;;;;;19.36;32.81;101174.69;5063257;28;45376;-52
2023/04/06 06:35:33;;;;;;;;;3.75;3.00;;;;;19.36;32.99;101179.94;5081148;28;45302;-50
2023/04/06 06:37:58;;;;;;;;;6.00;6.00;;;;;19.39;32.76;101187.69;5080471;28;46150;-46
2023/04/06 06:40:24;;;;;;;;;5.00;5.00;;;;;19.37;32.87;101181.66;5062044;28;45662;-51
2023/04/06 06:42:51;;;;;;;;;7.25;5.50;;;;;19.38;33.13;101180.72;5080949;28;45363;-51
2023/04/06 06:45:16;;;;;;;;;5.75;5.00;;;;;19.39;32.98;101177.19;5096619;28;45588;-47
2023/04/06 06:47:41;;;;;;;;;5.00;5.00;;;;;19.39;32.87;101179.81;5092607;28;45322;-44
2023/04/06 06:50:07;;;;;;;;;6.25;6.00;;;;;19.38;33.01;101175.47;5094580;28;45306;-47
2023/04/06 06:52:33;;;;;;;;;9.00;7.00;;;;;19.41;32.85;101177.09;5100829;28;45235;-49
2023/04/06 06:54:58;;;;;;;;;6.25;6.00;;;;;19.41;33.25;101169.22;5082257;28;45279;-50
2023/04/06 06:57:23;;;;;;;;;5.75;5.75;;;;;19.40;32.76;101171.00;5082616;28;46424;-49
2023/04/06 06:59:49;;;;;;;;;4.75;4.75;;;;;19.41;32.89;101177.97;5099531;28;45278;-47
2023/04/06 07:02:14;;;;;;;;;7.75;5.25;;;;;19.40;33.15;101170.16;5094916;28;45472;-49
2023/04/06 07:04:39;;;;;;;;;5.25;4.75;;;;;19.41;33.44;101172.72;5081544;28;45333;-50
2023/04/06 07:07:05;;;;;;;;;5.50;5.00;;;;;19.42;32.79;101178.81;5079798;28;46174;-52
2023/04/06 07:09:30;;;;;;;;;6.25;6.25;;;;;19.40;33.28;101178.06;5079464;28;45353;-47
2023/04/06 07:11:56;;;;;;;;;10.00;6.00;;;;;19.42;32.97;101184.06;5083602;28;45341;-50
2023/04/06 07:14:21;;;;;;;;;5.25;5.25;;;;;19.41;33.11;101170.09;5085605;28;45375;-53
2023/04/06 07:16:48;;;;;;;;;6.50;5.50;;;;;19.45;33.69;101178.69;5079494;28;45344;-52
2023/04/06 07:19:14;;;;;;;;;8.25;6.75;;;;;19.44;33.31;101177.84;5079733;28;45811;-47
2023/04/06 07:21:39;;;;;;;;;6.50;6.50;;;;;19.47;33.33;101179.47;5079776;28;45331;-51
2023/04/06 07:24:05;;;;;;;;;6.00;6.00;;;;;19.46;33.77;101173.34;5080179;28;45550;-51
2023/04/06 07:26:30;;;;;;;;;6.25;6.00;;;;;19.47;33.66;101176.84;5081787;28;45390;-53
2023/04/06 07:28:55;;;;;;;;;6.00;6.00;;;;;19.47;33.50;101177.69;5082410;28;45502;-40
2023/04/06 07:31:21;;;;;;;;;7.25;6.00;;;;;19.51;33.71;101172.28;5086461;28;45275;-43
2023/04/06 07:33:46;;;;;;;;;6.75;5.50;;;;;19.52;33.71;101168.75;5080466;28;45406;-43
2023/04/06 07:36:12;;;;;;;;;7.50;6.00;;;;;19.51;33.67;101173.16;5098132;28;46063;-45
2023/04/06 07:38:37;;;;;;;;;6.25;6.25;;;;;19.52;33.57;101179.25;5103335;28;45274;-46
2023/04/06 07:41:03;;;;;;;;;7.00;7.00;;;;;19.53;33.90;101178.34;5083552;28;45429;-46
2023/04/06 07:43:30;;;;;;;;;8.00;8.00;;;;;19.54;33.47;101182.69;5079478;28;45519;-44
2023/04/06 07:45:57;;;;;;;;;6.00;6.00;;;;;19.54;34.22;101183.53;5079293;28;46978;-47
2023/04/06 07:48:22;;;;;;;;;7.00;7.00;;;;;19.54;33.63;101180.88;5079507;28;45324;-42
2023/04/06 07:50:48;;;;;;;;;5.50;5.50;;;;;19.54;33.79;101175.63;5079402;28;45469;-47
2023/04/06 07:53:13;;;;;;;;;5.25;5.00;;;;;19.56;33.76;101180.84;5080709;28;45409;-46
2023/04/06 07:55:39;;;;;;;;;6.00;6.00;;;;;19.57;34.11;101177.25;5081657;28;45985;-45
2023/04/06 07:58:04;;;;;;;;;8.50;5.50;;;;;19.56;33.80;101181.69;5068608;28;45593;-48
2023/04/06 08:00:30;;;;;;;;;4.50;4.50;;;;;19.56;34.08;101175.59;5099085;28;45228;-45
2023/04/06 08:02:55;;;;;;;;;6.75;5.75;;;;;19.59;33.86;101175.41;5087554;28;45218;-45
2023/04/06 08:05:21;;;;;;;;;5.75;4.75;;;;;19.57;34.32;101166.75;5100561;28;45006;-45
2023/04/06 08:07:46;;;;;;;;;4.75;4.00;;;;;19.60;34.41;101166.59;5080046;28;45465;-44
2023/04/06 08:10:11;;;;;;;;;5.00;4.25;;;;;19.61;34.03;101174.44;5079293;28;45336;-46
2023/04/06 08:12:37;;;;;;;;;6.75;6.00;;;;;19.61;34.37;101168.31;5079121;28;45313;-50
2023/04/06 08:15:03;;;;;;;;;6.75;5.75;;;;;19.62;34.22;101168.25;5078456;28;45323;-47
2023/04/06 08:17:30;;;;;;;;;4.50;4.50;;;;;19.63;34.11;101169.94;5078482;28;45412;-45
2023/04/06 08:19:55;;;;;;;;;5.50;5.50;;;;;19.63;34.11;101159.44;5078439;28;45475;-49
2023/04/06 08:22:21;;;;;;;;;6.75;6.00;;;;;19.64;34.05;101168.19;5060132;28;45395;-46
2023/04/06 08:24:46;;;;;;;;;2.75;2.75;;;;;19.63;34.24;101163.84;5077909;28;46094;-48
2023/04/06 08:27:13;;;;;;;;;5.00;5.00;;;;;19.66;33.90;101170.72;5077952;28;45366;-49
2023/04/06 08:29:39;;;;;;;;;6.25;4.50;;;;;19.65;33.84;101172.53;5078015;28;45347;-49
2023/04/06 08:32:05;;;;;;;;;6.25;5.50;;;;;19.66;33.78;101163.72;5078018;28;45480;-47
2023/04/06 08:34:32;;;;;;;;;4.25;4.25;;;;;19.65;33.78;101169.91;5077316;28;46988;-43
2023/04/06 08:36:57;;;;;;;;;6.50;6.00;;;;;19.65;34.30;101177.78;5078104;28;45893;-51
2023/04/06 08:39:25;;;;;;;;;5.75;4.00;;;;;19.65;33.90;101176.91;5083998;28;45361;-51
2023/04/06 08:41:52;;;;;;;;;7.75;5.25;;;;;19.63;34.39;101172.56;5099071;28;45474;-47
2023/04/06 08:44:18;;;;;;;;;5.50;5.50;;;;;19.64;34.41;101181.34;5080011;28;45460;-44
2023/04/06 08:46:44;;;;;;;;;7.00;6.00;;;;;19.63;34.46;101188.34;5080352;28;45382;-42
2023/04/06 08:49:09;;;;;;;;;4.75;4.00;;;;;19.64;34.35;101197.09;5061008;28;45360;-43
2023/04/06 08:51:38;;;;;;;;;6.00;5.25;;;;;19.63;34.42;101192.78;5094819;28;44881;-45
2023/04/06 08:54:03;;;;;;;;;6.00;4.25;;;;;19.63;34.54;101201.50;5093113;28;45995;-48
2023/04/06 08:56:28;;;;;;;;;5.75;3.00;;;;;19.63;34.29;101198.03;5061591;28;45470;-47
2023/04/06 08:58:55;;;;;;;;;7.25;5.50;;;;;19.63;34.31;101204.13;5079593;28;45414;-45
2023/04/06 09:01:25;;;;;;;;;6.00;6.00;;;;;19.63;34.26;101211.19;5079689;28;45470;-42
2023/04/06 09:03:54;;;;;;;;;5.50;5.50;;;;;19.63;34.82;101209.38;5079571;28;46364;-48
2023/04/06 09:06:20;;;;;;;;;5.25;5.25;;;;;19.63;34.46;101211.19;5077579;28;45845;-51
2023/04/06 09:08:46;;;;;;;;;5.25;5.25;;;;;19.62;34.25;101201.59;5077806;28;45405;-50
2023/04/06 09:11:11;;;;;;;;;3.25;3.25;;;;;19.61;34.29;101192.84;5077169;27;45310;-49
2023/04/06 09:13:51;;;;;;;;;5.00;5.00;;;;;19.60;34.14;101187.66;5078849;28;46373;-49
2023/04/06 09:16:17;;;;;;;;;4.00;4.00;;;;;19.60;34.67;101198.16;5081743;28;45748;-49
2023/04/06 09:18:43;;;;;;;;;5.25;4.25;;;;;19.60;34.61;101209.56;5078149;28;45328;-48
2023/04/06 09:21:09;;;;;;;;;6.50;5.25;;;;;19.60;34.48;101213.94;5080447;28;45370;-47
2023/04/06 09:23:34;;;;;;;;;6.75;5.00;;;;;19.58;34.85;101216.66;5097844;28;45622;-48
2023/04/06 09:26:05;;;;;;;;;7.50;5.25;;;;;19.55;34.52;101208.88;5102382;28;45466;-48
2023/04/06 09:28:50;;;;;;;;;6.00;6.00;;;;;19.56;34.72;101213.22;5079615;28;45508;-46
2023/04/06 09:31:37;;;;;;;;;5.00;5.00;;;;;19.57;34.67;101214.94;5079388;28;45260;-49
2023/04/06 09:34:02;;;;;;;;;5.00;4.00;;;;;19.54;34.43;101207.19;5077084;28;45296;-47
2023/04/06 09:36:40;;;;;;;;;6.50;5.75;;;;;19.56;34.87;101213.22;5077156;28;45267;-49
2023/04/06 09:39:06;;;;;;;;;5.00;5.00;;;;;19.55;34.83;101205.44;5076810;28;45295;-49
2023/04/06 09:41:33;;;;;;;;;4.50;4.25;;;;;19.56;34.82;101215.03;5077155;28;45412;-51
2023/04/06 09:44:04;;;;;;;;;6.50;4.00;;;;;19.56;34.68;101215.03;5058759;28;46103;-47
2023/04/06 09:46:32;;;;;;;;;4.50;4.50;;;;;19.54;35.10;101212.44;5077131;28;45192;-49
2023/04/06 09:48:58;;;;;;;;;5.00;5.00;;;;;19.54;35.27;101193.19;5076731;28;45451;-49
2023/04/06 09:51:26;;;;;;;;;5.50;5.50;;;;;19.55;34.74;101194.91;5077555;28;45274;-50
2023/04/06 09:53:54;;;;;;;;;5.75;4.00;;;;;19.55;35.30;101206.25;5080121;28;46083;-49
2023/04/06 09:56:25;;;;;;;;;4.00;4.00;;;;;19.55;35.30;101210.69;5098069;28;45189;-48
2023/04/06 09:58:56;;;;;;;;;5.00;3.25;;;;;19.55;34.77;101221.19;5096080;28;45228;-43
2023/04/06 10:01:27;;;;;;;;;4.00;4.00;;;;;19.54;34.87;101227.38;5088471;28;45469;-42
2023/04/06 10:04:05;;;;;;;;;7.00;4.00;;;;;19.54;35.21;101227.38;5101321;28;45173;-46
2023/04/06 10:06:35;;;;;;;;;5.75;4.75;;;;;19.54;35.27;101228.22;5103533;28;45290;-49
2023/04/06 10:09:03;;;;;;;;;3.00;3.00;;;;;19.53;34.86;101223.88;5099229;28;44774;-48
2023/04/06 10:11:28;;;;;;;;;6.25;4.50;;;;;19.54;35.02;101230.00;5080338;28;45149;-49
2023/04/06 10:13:55;;;;;;;;;5.00;4.00;;;;;19.52;34.81;101229.22;5095405;28;45986;-49
2023/04/06 10:16:22;;;;;;;;;4.00;3.50;;;;;19.53;35.34;101217.78;5077482;28;45889;-46
2023/04/06 10:18:54;;;;;;;;;5.25;5.00;;;;;19.53;34.98;101215.16;5078624;28;45383;-50
2023/04/06 10:21:24;;;;;;;;;4.00;4.00;;;;;19.52;35.36;101214.28;5077138;28;45345;-45
2023/04/06 10:24:02;;;;;;;;;4.00;4.00;;;;;19.51;35.09;101211.72;5079795;28;47026;-44
2023/04/06 10:26:27;;;;;;;;;4.00;4.00;;;;;19.53;35.38;101217.78;5080267;28;45758;-44
2023/04/06 10:28:55;;;;;;;;;4.50;4.00;;;;;19.52;35.24;101221.31;5090681;28;45231;-44
2023/04/06 10:31:28;;;;;;;;;3.00;3.00;;;;;19.52;35.57;101222.16;5101959;28;44893;-49
2023/04/06 10:34:00;;;;;;;;;5.50;4.00;;;;;19.52;35.08;101218.69;5082070;28;46069;-44
2023/04/06 10:36:35;;;;;;;;;3.50;3.50;;;;;19.52;35.24;101218.69;5090769;28;45090;-48
2023/04/06 10:39:05;;;;;;;;;4.00;4.00;;;;;19.52;35.21;101224.78;5084039;28;45167;-49
2023/04/06 10:41:49;;;;;;;;;4.50;3.25;;;;;19.50;35.25;101231.06;5084950;28;45351;-48
2023/04/06 10:44:21;;;;;;;;;5.00;4.00;;;;;19.51;35.28;101223.13;5100299;27;46283;-44
2023/04/06 10:46:57;;;;;;;;;4.75;4.75;;;;;19.51;35.63;101223.13;5083767;28;45295;-49
2023/04/06 10:49:24;;;;;;;;;5.00;4.00;;;;;19.53;35.63;101228.28;5080223;28;45260;-50
2023/04/06 10:51:54;;;;;;;;;5.00;5.00;;;;;19.53;35.23;101217.78;5079752;28;45413;-45
2023/04/06 10:54:25;;;;;;;;;3.75;3.75;;;;;19.53;35.69;101226.50;5078961;28;47111;-46
2023/04/06 10:56:51;;;;;;;;;4.00;4.00;;;;;19.52;35.61;101224.78;5095103;28;45410;-44
2023/04/06 10:59:24;;;;;;;;;3.75;3.75;;;;;19.55;35.79;101219.41;5096974;28;45471;-47
2023/04/06 11:01:50;;;;;;;;;3.75;3.75;;;;;19.55;35.36;101222.03;5061829;28;45543;-46
2023/04/06 11:04:20;;;;;;;;;3.00;3.00;;;;;19.60;35.78;101219.19;5044765;28;47032;-48
2023/04/06 11:06:48;;;;;;;;;4.25;3.25;;;;;19.59;35.77;101223.63;5066100;28;45359;-47
2023/04/06 11:09:24;;;;;;;;;4.00;4.00;;;;;19.58;35.71;101221.91;5066022;28;45240;-46
2023/04/06 11:11:50;;;;;;;;;3.00;3.00;;;;;19.60;35.65;101227.97;5059459;28;45436;-51
2023/04/06 11:14:18;;;;;;;;;3.00;3.00;;;;;19.62;35.72;101225.25;5059027;28;45764;-49
2023/04/06 11:16:47;;;;;;;;;4.00;4.00;;;;;19.63;35.38;101222.53;5058365;28;45418;-43
2023/04/06 11:19:12;;;;;;;;;5.00;3.00;;;;;19.63;35.94;101219.06;5058168;28;45361;-51
2023/04/06 11:21:39;;;;;;;;;5.25;3.25;;;;;19.62;35.45;101217.34;5058959;28;45308;-50